Time;durP1;ratioP1;P1;durP2;ratioP2;P2;SDS_P1;SDS_P2;PMS_P1;PMS_P2;Temp;Humidity;BMP_temperature;BMP_pressure;BME280_temperature;BME280_humidity;BME280_pressure;Samples;Min_cycle;Max_cycle;Signal;HPM_P1;HPM_P2
2024/01/29 00:01:36;;;;;;;2.97;1.70;;;7.20;1.00;;;;;;5037311;28;20214;-80
2024/01/29 00:04:03;;;;;;;2.90;2.00;;;6.90;1.00;;;;;;5039222;28;20219;-80
2024/01/29 00:06:30;;;;;;;2.83;1.70;;;6.80;1.00;;;;;;5040625;28;20314;-80
2024/01/29 00:08:59;;;;;;;3.63;1.93;;;6.60;1.00;;;;;;5039172;28;20208;-80
2024/01/29 00:11:26;;;;;;;2.77;1.63;;;6.40;1.00;;;;;;5038064;28;20672;-81
2024/01/29 00:13:53;;;;;;;2.60;2.00;;;6.30;1.00;;;;;;5038351;28;20214;-80
2024/01/29 00:16:20;;;;;;;2.90;1.90;;;6.10;1.00;;;;;;5038761;28;20223;-80
2024/01/29 00:18:46;;;;;;;2.60;1.90;;;6.40;1.00;;;;;;5043775;28;20200;-80
2024/01/29 00:21:13;;;;;;;1.80;1.63;;;6.10;1.00;;;;;;5037305;28;20206;-80
2024/01/29 00:23:40;;;;;;;3.60;2.30;;;6.10;1.00;;;;;;5037318;28;20235;-80
2024/01/29 00:26:08;;;;;;;3.10;1.73;;;6.10;1.00;;;;;;5038443;28;20740;-80
2024/01/29 00:28:35;;;;;;;2.63;2.07;;;6.00;1.00;;;;;;5040204;28;20666;-80
2024/01/29 00:31:02;;;;;;;2.73;1.80;;;5.90;1.00;;;;;;5040115;28;20226;-80
2024/01/29 00:33:29;;;;;;;2.83;1.63;;;6.10;1.00;;;;;;5043379;28;20192;-80
2024/01/29 00:35:55;;;;;;;1.67;1.53;;;6.10;1.00;;;;;;5042754;28;20229;-80
2024/01/29 00:38:22;;;;;;;1.80;1.60;;;5.90;1.00;;;;;;5043243;28;20210;-79
2024/01/29 00:40:49;;;;;;;2.83;1.50;;;6.00;1.00;;;;;;5039589;28;20199;-79
2024/01/29 00:43:17;;;;;;;3.43;1.63;;;6.00;1.00;;;;;;5039055;28;20199;-80
2024/01/29 00:45:44;;;;;;;4.13;1.80;;;6.00;1.00;;;;;;5041578;28;20223;-80
2024/01/29 00:48:11;;;;;;;2.97;1.93;;;6.40;1.00;;;;;;5039128;28;20210;-79
2024/01/29 00:50:37;;;;;;;3.00;1.83;;;6.20;1.00;;;;;;5038142;28;20203;-79
2024/01/29 00:53:05;;;;;;;2.73;1.80;;;6.00;1.00;;;;;;5038807;28;20239;-80
2024/01/29 00:55:32;;;;;;;2.90;1.57;;;5.80;1.00;;;;;;5036642;28;20223;-80
2024/01/29 00:57:59;;;;;;;5.57;1.77;;;5.70;1.00;;;;;;5035185;28;20200;-79
2024/01/29 01:00:27;;;;;;;4.27;1.67;;;5.70;1.00;;;;;;5035046;28;20620;-79
2024/01/29 01:02:54;;;;;;;2.67;2.00;;;5.90;1.00;;;;;;5036078;28;20204;-79
2024/01/29 01:05:21;;;;;;;3.30;2.00;;;6.30;1.00;;;;;;5036395;28;20229;-79
2024/01/29 01:07:48;;;;;;;2.90;1.70;;;5.80;1.00;;;;;;5031626;28;20210;-78
2024/01/29 01:10:14;;;;;;;4.83;1.70;;;5.90;1.00;;;;;;5035142;28;20207;-79
2024/01/29 01:12:41;;;;;;;2.13;1.80;;;6.40;1.00;;;;;;5037309;28;20235;-80
2024/01/29 01:15:08;;;;;;;2.57;1.77;;;6.00;1.00;;;;;;5036003;28;20210;-79
2024/01/29 01:17:36;;;;;;;3.50;1.70;;;5.80;1.00;;;;;;5034865;28;20271;-79
2024/01/29 01:20:04;;;;;;;4.93;1.53;;;5.60;1.00;;;;;;5035132;28;20659;-79
2024/01/29 01:22:30;;;;;;;1.50;1.40;;;6.10;1.00;;;;;;5035682;28;20215;-79
2024/01/29 01:24:57;;;;;;;1.90;1.70;;;6.50;1.00;;;;;;5041361;28;20220;-79
2024/01/29 01:27:24;;;;;;;3.47;2.10;;;6.40;1.00;;;;;;5033864;28;20230;-79
2024/01/29 01:29:51;;;;;;;1.90;1.70;;;6.40;1.00;;;;;;5032230;28;20203;-79
2024/01/29 01:32:18;;;;;;;1.93;1.63;;;6.60;1.00;;;;;;5041860;28;20218;-79
2024/01/29 01:34:46;;;;;;;2.13;1.63;;;6.60;1.00;;;;;;5046066;28;20207;-79
2024/01/29 01:37:13;;;;;;;3.50;1.83;;;6.40;1.00;;;;;;5040723;28;20218;-80
2024/01/29 01:39:40;;;;;;;2.07;1.50;;;6.90;1.00;;;;;;5038455;28;20272;-79
2024/01/29 01:42:07;;;;;;;2.53;1.50;;;6.70;1.00;;;;;;5045553;28;20207;-80
2024/01/29 01:44:33;;;;;;;1.70;1.60;;;6.60;1.00;;;;;;5035658;28;20219;-79
2024/01/29 01:47:00;;;;;;;2.40;1.30;;;6.40;1.00;;;;;;5042568;28;20246;-79
2024/01/29 01:49:28;;;;;;;2.33;1.60;;;6.50;1.00;;;;;;5039875;28;20792;-79
2024/01/29 01:51:57;;;;;;;2.03;1.80;;;6.50;1.00;;;;;;5039762;28;20200;-79
2024/01/29 01:54:24;;;;;;;1.83;1.50;;;6.50;1.00;;;;;;5035691;28;20203;-79
2024/01/29 01:56:51;;;;;;;3.53;1.73;;;6.90;1.00;;;;;;5037834;28;20225;-79
2024/01/29 01:59:20;;;;;;;2.83;1.47;;;6.60;1.00;;;;;;5035592;28;20295;-80
2024/01/29 02:01:47;;;;;;;2.33;1.60;;;6.70;1.00;;;;;;5032833;28;20206;-79
2024/01/29 02:04:13;;;;;;;2.90;1.60;;;6.90;1.00;;;;;;5035542;28;20230;-80
2024/01/29 02:06:41;;;;;;;2.67;1.53;;;7.10;1.00;;;;;;5034232;28;20258;-79
2024/01/29 02:09:09;;;;;;;3.40;1.60;;;7.10;1.00;;;;;;5033134;28;20218;-79
2024/01/29 02:11:36;;;;;;;1.83;1.33;;;7.00;1.00;;;;;;5032041;28;20211;-79
2024/01/29 02:14:03;;;;;;;2.93;1.50;;;6.60;1.00;;;;;;5032575;28;20567;-79
2024/01/29 02:16:30;;;;;;;2.47;1.87;;;6.90;1.00;;;;;;5033002;28;20606;-79
2024/01/29 02:18:56;;;;;;;2.03;1.83;;;6.50;1.00;;;;;;5034084;28;20681;-78
2024/01/29 02:21:23;;;;;;;2.37;1.57;;;6.30;1.00;;;;;;5034250;28;20203;-79
2024/01/29 02:23:51;;;;;;;4.20;1.60;;;6.40;1.00;;;;;;5038337;28;20580;-78
2024/01/29 02:26:18;;;;;;;2.60;1.33;;;7.00;1.00;;;;;;5036519;28;20685;-79
2024/01/29 02:28:45;;;;;;;2.63;1.53;;;6.60;1.00;;;;;;5036554;28;20225;-79
2024/01/29 02:31:13;;;;;;;3.80;1.60;;;6.50;1.00;;;;;;5037794;28;20216;-80
2024/01/29 02:33:39;;;;;;;1.67;1.43;;;6.20;1.00;;;;;;5040945;28;20625;-78
2024/01/29 02:36:07;;;;;;;1.73;1.40;;;6.00;1.00;;;;;;5043026;28;20214;-79
2024/01/29 02:38:34;;;;;;;3.50;1.60;;;5.90;1.00;;;;;;5044406;28;20196;-80
2024/01/29 02:41:02;;;;;;;1.47;1.27;;;5.90;1.00;;;;;;5039294;28;20207;-79
2024/01/29 02:43:29;;;;;;;3.07;1.63;;;5.80;1.00;;;;;;5039797;28;20219;-80
2024/01/29 02:45:56;;;;;;;2.00;1.30;;;5.60;1.00;;;;;;5044538;28;20238;-78
2024/01/29 02:48:22;;;;;;;2.17;1.50;;;6.00;1.00;;;;;;5044556;28;20210;-79
2024/01/29 02:50:49;;;;;;;2.40;1.37;;;6.30;1.00;;;;;;5037172;28;20206;-78
2024/01/29 02:53:16;;;;;;;2.00;1.57;;;6.00;1.00;;;;;;5043528;28;20209;-79
2024/01/29 02:55:43;;;;;;;2.40;1.20;;;6.10;1.00;;;;;;5040576;28;20219;-79
2024/01/29 02:58:11;;;;;;;1.87;1.30;;;6.20;1.00;;;;;;5039467;28;20204;-78
2024/01/29 03:00:38;;;;;;;1.83;1.33;;;6.90;1.00;;;;;;5036885;28;20195;-79
2024/01/29 03:03:05;;;;;;;2.30;1.27;;;7.00;1.00;;;;;;5042201;28;20666;-78
2024/01/29 03:05:31;;;;;;;1.20;1.10;;;6.50;1.00;;;;;;5042933;28;20226;-79
2024/01/29 03:07:58;;;;;;;2.67;1.50;;;6.60;1.00;;;;;;5040541;28;20214;-78
2024/01/29 03:10:26;;;;;;;1.53;1.10;;;6.60;1.00;;;;;;5037106;28;20213;-78
2024/01/29 03:12:54;;;;;;;1.43;1.23;;;6.30;1.00;;;;;;5038659;28;20208;-79
2024/01/29 03:15:22;;;;;;;1.37;1.23;;;5.90;1.00;;;;;;5038348;28;20203;-80
2024/01/29 03:17:49;;;;;;;2.53;1.20;;;6.00;1.00;;;;;;5033340;28;20275;-79
2024/01/29 03:20:16;;;;;;;1.77;1.30;;;6.10;1.00;;;;;;5037328;28;20204;-79
2024/01/29 03:22:43;;;;;;;2.93;1.60;;;6.40;1.00;;;;;;5038313;28;20684;-79
2024/01/29 03:25:10;;;;;;;1.60;1.17;;;6.40;1.00;;;;;;5038164;28;20230;-79
2024/01/29 03:27:37;;;;;;;1.20;1.10;;;6.40;1.00;;;;;;5037189;28;20216;-79
2024/01/29 03:30:04;;;;;;;3.60;1.40;;;6.10;1.00;;;;;;5044821;28;20486;-79
2024/01/29 03:32:32;;;;;;;2.27;1.40;;;6.20;1.00;;;;;;5050107;28;20209;-79
2024/01/29 03:34:59;;;;;;;3.73;1.50;;;6.50;1.00;;;;;;5053894;28;20206;-79
2024/01/29 03:37:26;;;;;;;2.53;1.50;;;6.30;1.00;;;;;;5045425;28;20687;-80
2024/01/29 03:39:53;;;;;;;34.90;22.57;;;6.10;1.00;;;;;;5042635;28;20199;-80
2024/01/29 03:42:19;;;;;;;3.30;2.27;;;5.90;1.00;;;;;;5037267;28;20207;-80
2024/01/29 03:44:46;;;;;;;2.07;1.77;;;6.00;1.00;;;;;;5046657;28;20230;-78
2024/01/29 03:47:13;;;;;;;2.67;1.50;;;5.70;1.00;;;;;;5050314;28;20233;-79
2024/01/29 03:49:43;;;;;;;1.47;1.30;;;5.60;1.00;;;;;;5046574;28;20568;-79
2024/01/29 03:52:09;;;;;;;1.87;1.40;;;6.10;1.00;;;;;;5040793;28;20284;-79
2024/01/29 03:54:36;;;;;;;1.70;1.60;;;6.00;1.00;;;;;;5044586;28;20570;-79
2024/01/29 03:57:03;;;;;;;2.67;1.40;;;5.90;1.00;;;;;;5042988;28;20223;-80
2024/01/29 03:59:33;;;;;;;1.83;1.23;;;5.80;1.00;;;;;;5042258;28;20210;-78
2024/01/29 04:02:00;;;;;;;2.50;1.37;;;6.00;1.00;;;;;;5042071;28;20200;-80
2024/01/29 04:04:27;;;;;;;1.47;1.33;;;5.90;1.00;;;;;;5042824;28;20201;-80
2024/01/29 04:06:55;;;;;;;1.90;1.57;;;6.10;1.00;;;;;;5039290;28;20220;-81
2024/01/29 04:09:22;;;;;;;1.30;1.20;;;6.40;1.00;;;;;;5040794;28;20210;-79
2024/01/29 04:11:50;;;;;;;3.73;1.63;;;6.80;1.00;;;;;;5035790;28;20200;-80
2024/01/29 04:14:17;;;;;;;2.80;1.50;;;6.20;1.00;;;;;;5036737;28;20210;-79
2024/01/29 04:16:45;;;;;;;2.13;1.30;;;6.30;1.00;;;;;;5037599;28;20237;-81
2024/01/29 04:19:12;;;;;;;2.30;1.20;;;7.10;1.00;;;;;;5035223;28;20291;-80
2024/01/29 04:21:42;;;;;;;2.37;1.70;;;6.70;1.00;;;;;;5035332;28;20711;-83
2024/01/29 04:24:10;;;;;;;1.13;0.90;;;6.60;1.00;;;;;;5034751;28;20204;-78
2024/01/29 04:26:38;;;;;;;2.00;1.30;;;6.70;1.00;;;;;;5033335;28;20238;-79
2024/01/29 04:29:05;;;;;;;2.10;1.50;;;6.70;1.00;;;;;;5042381;28;20200;-80
2024/01/29 04:31:32;;;;;;;1.40;1.30;;;6.80;1.00;;;;;;5048603;28;20202;-78
2024/01/29 04:33:58;;;;;;;2.83;1.40;;;6.30;1.00;;;;;;5044071;28;20195;-81
2024/01/29 04:36:25;;;;;;;2.27;1.47;;;6.20;1.00;;;;;;5043565;28;20232;-80
2024/01/29 04:38:52;;;;;;;1.60;1.50;;;5.70;1.00;;;;;;5040315;28;20234;-79
2024/01/29 04:41:21;;;;;;;1.37;1.27;;;5.50;1.00;;;;;;5040965;28;20227;-80
2024/01/29 04:43:49;;;;;;;2.67;1.40;;;5.30;1.00;;;;;;5047974;28;20624;-81
2024/01/29 04:46:16;;;;;;;1.83;1.73;;;5.30;1.00;;;;;;5050378;28;20223;-80
2024/01/29 04:48:42;;;;;;;2.13;1.57;;;5.30;1.00;;;;;;5040430;28;20207;-80
2024/01/29 04:51:10;;;;;;;3.33;1.50;;;5.10;1.00;;;;;;5040855;28;20208;-81
2024/01/29 04:53:38;;;;;;;2.53;1.47;;;5.00;1.00;;;;;;5040644;28;20204;-81
2024/01/29 04:56:05;;;;;;;1.80;1.63;;;4.90;1.00;;;;;;5036842;28;20752;-80
2024/01/29 04:58:34;;;;;;;1.70;1.50;;;4.70;1.00;;;;;;5038132;28;20203;-79
2024/01/29 05:01:01;;;;;;;2.27;1.53;;;4.70;1.00;;;;;;5039163;28;20207;-79
2024/01/29 05:03:28;;;;;;;3.60;1.40;;;4.70;1.00;;;;;;5041522;28;20199;-79
2024/01/29 05:05:55;;;;;;;2.43;1.30;;;4.50;1.00;;;;;;5041411;28;20229;-81
2024/01/29 05:08:22;;;;;;;2.20;1.50;;;4.60;1.00;;;;;;5040921;28;20204;-81
2024/01/29 05:10:49;;;;;;;2.30;1.60;;;4.40;1.00;;;;;;5037582;28;20199;-81
2024/01/29 05:13:16;;;;;;;2.17;1.20;;;4.20;1.00;;;;;;5035585;28;20294;-79
2024/01/29 05:15:44;;;;;;;2.47;1.30;;;4.00;9.40;;;;;;5035670;28;20250;-81
2024/01/29 05:18:11;;;;;;;2.00;1.30;;;3.90;55.10;;;;;;5036389;28;20208;-80
2024/01/29 05:20:38;;;;;;;2.33;1.60;;;3.90;79.70;;;;;;5036637;28;20225;-81
2024/01/29 05:23:05;;;;;;;2.80;1.50;;;4.00;99.90;;;;;;5035262;28;20203;-79
2024/01/29 05:25:32;;;;;;;1.50;1.40;;;4.00;94.80;;;;;;5034606;28;20262;-80
2024/01/29 05:27:59;;;;;;;1.50;1.40;;;4.40;81.50;;;;;;5035162;28;20207;-79
2024/01/29 05:30:25;;;;;;;3.23;1.80;;;4.50;69.20;;;;;;5036200;28;20218;-79
2024/01/29 05:32:54;;;;;;;3.40;1.87;;;4.90;29.30;;;;;;5036212;28;20220;-80
2024/01/29 05:35:20;;;;;;;3.40;1.83;;;4.70;46.70;;;;;;5035094;28;20202;-81
2024/01/29 05:37:47;;;;;;;4.07;2.03;;;4.30;94.50;;;;;;5042005;28;20207;-80
2024/01/29 05:40:14;;;;;;;2.40;1.60;;;4.10;99.90;;;;;;5041055;28;20211;-81
2024/01/29 05:42:41;;;;;;;2.53;1.50;;;3.90;99.90;;;;;;5046326;28;20213;-80
2024/01/29 05:45:08;;;;;;;2.80;1.50;;;3.80;99.90;;;;;;5034645;28;20219;-81
2024/01/29 05:47:35;;;;;;;2.33;1.67;;;3.70;99.90;;;;;;5048420;28;20254;-81
2024/01/29 05:50:05;;;;;;;3.27;1.53;;;3.80;99.90;;;;;;5038949;28;20204;-80
2024/01/29 05:52:33;;;;;;;2.57;1.30;;;3.70;99.90;;;;;;5044296;28;20334;-79
2024/01/29 05:55:00;;;;;;;3.20;1.53;;;3.60;99.90;;;;;;5038568;28;20206;-81
2024/01/29 05:57:28;;;;;;;3.67;2.03;;;3.60;99.90;;;;;;5042371;28;20215;-81
2024/01/29 05:59:54;;;;;;;1.77;1.20;;;3.60;99.90;;;;;;5038264;28;20206;-80
2024/01/29 06:02:21;;;;;;;3.93;1.87;;;3.70;99.90;;;;;;5045268;28;20209;-80
2024/01/29 06:04:48;;;;;;;2.03;1.50;;;3.60;99.90;;;;;;5036384;28;20636;-81
2024/01/29 06:07:16;;;;;;;3.40;1.93;;;3.50;99.90;;;;;;5041040;28;20701;-79
2024/01/29 06:09:43;;;;;;;2.87;1.60;;;4.00;99.90;;;;;;5037553;28;20219;-81
2024/01/29 06:12:10;;;;;;;2.00;1.60;;;4.30;99.90;;;;;;5036499;28;20218;-79
2024/01/29 06:14:36;;;;;;;2.67;1.93;;;4.90;99.90;;;;;;5038034;28;20205;-79
2024/01/29 06:17:03;;;;;;;2.60;1.70;;;4.50;99.90;;;;;;5036358;28;20219;-79
2024/01/29 06:19:30;;;;;;;3.87;2.00;;;4.50;99.90;;;;;;5036936;28;20247;-80
2024/01/29 06:21:57;;;;;;;4.77;2.57;;;5.10;99.90;;;;;;5036101;28;20230;-80
2024/01/29 06:24:25;;;;;;;2.73;1.87;;;5.00;99.90;;;;;;5035361;28;20658;-79
2024/01/29 06:26:52;;;;;;;2.50;1.70;;;5.10;99.90;;;;;;5035399;28;20223;-80
2024/01/29 06:29:18;;;;;;;3.00;1.47;;;4.90;99.90;;;;;;5036171;28;20582;-81
2024/01/29 06:31:45;;;;;;;2.93;1.80;;;5.10;99.90;;;;;;5034962;28;20203;-80
2024/01/29 06:34:12;;;;;;;2.27;1.70;;;5.00;99.90;;;;;;5035730;28;20207;-81
2024/01/29 06:36:39;;;;;;;1.67;1.57;;;5.20;99.90;;;;;;5036500;28;20219;-80
2024/01/29 06:39:07;;;;;;;4.07;1.93;;;5.00;99.90;;;;;;5038705;28;20208;-80
2024/01/29 06:41:35;;;;;;;3.67;1.80;;;5.30;99.90;;;;;;5038349;28;20204;-81
2024/01/29 06:44:02;;;;;;;2.77;1.93;;;5.20;99.90;;;;;;5044930;28;20653;-81
2024/01/29 06:46:29;;;;;;;2.80;1.73;;;4.80;99.90;;;;;;5043602;28;20241;-82
2024/01/29 06:48:55;;;;;;;3.00;1.77;;;4.70;99.90;;;;;;5044393;28;20214;-81
2024/01/29 06:51:22;;;;;;;3.53;2.00;;;4.50;99.90;;;;;;5046573;28;20210;-81
2024/01/29 06:53:49;;;;;;;2.07;1.80;;;4.40;99.90;;;;;;5048292;28;20202;-79
2024/01/29 06:56:16;;;;;;;5.00;2.00;;;4.20;99.90;;;;;;5049867;28;20218;-80
2024/01/29 06:58:45;;;;;;;3.40;1.80;;;4.20;99.90;;;;;;5044975;28;20208;-81
2024/01/29 07:01:12;;;;;;;2.00;1.80;;;4.60;99.90;;;;;;5041504;28;20212;-79
2024/01/29 07:03:39;;;;;;;2.97;1.83;;;4.40;99.90;;;;;;5041485;28;20688;-79
2024/01/29 07:06:06;;;;;;;3.90;2.07;;;4.30;99.90;;;;;;5039361;28;20238;-79
2024/01/29 07:08:32;;;;;;;3.17;1.90;;;4.60;99.90;;;;;;5042031;28;20581;-80
2024/01/29 07:10:59;;;;;;;3.23;2.23;;;4.50;99.90;;;;;;5036383;28;20570;-79
2024/01/29 07:13:26;;;;;;;2.10;1.87;;;4.30;99.90;;;;;;5040972;28;20212;-81
2024/01/29 07:15:54;;;;;;;2.10;1.70;;;4.10;99.90;;;;;;5037519;28;20231;-81
2024/01/29 07:18:22;;;;;;;2.20;1.70;;;4.20;99.90;;;;;;5037776;28;20203;-81
2024/01/29 07:20:50;;;;;;;2.13;1.60;;;4.40;99.90;;;;;;5042851;28;20207;-80
2024/01/29 07:23:17;;;;;;;3.53;1.60;;;4.30;99.90;;;;;;5037659;28;20345;-79
2024/01/29 07:25:44;;;;;;;2.73;2.00;;;4.50;99.90;;;;;;5041904;28;20587;-80
2024/01/29 07:28:11;;;;;;;2.47;1.60;;;4.50;99.90;;;;;;5038040;28;20203;-81
2024/01/29 07:30:38;;;;;;;2.43;1.77;;;4.50;99.90;;;;;;5039429;28;20215;-81
2024/01/29 07:33:06;;;;;;;2.17;1.80;;;4.70;99.90;;;;;;5040925;28;20215;-80
2024/01/29 07:35:33;;;;;;;3.73;2.23;;;4.70;99.90;;;;;;5039322;28;20709;-80
2024/01/29 07:38:00;;;;;;;3.00;1.60;;;5.10;99.90;;;;;;5038501;28;20203;-80
2024/01/29 07:40:27;;;;;;;2.50;2.00;;;4.40;99.90;;;;;;5037284;28;20207;-79
2024/01/29 07:42:53;;;;;;;2.97;2.07;;;4.40;99.90;;;;;;5037223;28;20204;-80
2024/01/29 07:45:20;;;;;;;2.23;1.80;;;4.30;99.90;;;;;;5037238;28;20226;-81
2024/01/29 07:47:47;;;;;;;2.37;1.63;;;4.30;99.90;;;;;;5035294;28;20231;-80
2024/01/29 07:50:15;;;;;;;3.63;1.97;;;4.20;99.90;;;;;;5044996;28;20203;-80
2024/01/29 07:52:42;;;;;;;4.47;2.03;;;4.10;99.90;;;;;;5042075;28;20203;-82
2024/01/29 07:55:09;;;;;;;3.50;1.90;;;4.10;99.90;;;;;;5043138;28;20208;-81
2024/01/29 07:57:35;;;;;;;4.10;2.10;;;4.10;99.90;;;;;;5042323;28;20320;-80
2024/01/29 08:00:03;;;;;;;2.73;2.10;;;4.20;99.90;;;;;;5040426;28;20199;-80
2024/01/29 08:02:30;;;;;;;2.40;2.20;;;4.20;99.90;;;;;;5041655;28;20294;-81
2024/01/29 08:04:57;;;;;;;2.67;2.00;;;4.10;1.00;;;;;;5036301;28;20208;-81
2024/01/29 08:07:26;;;;;;;2.40;1.80;;;4.60;1.00;;;;;;5042036;28;20685;-78
2024/01/29 08:09:53;;;;;;;3.60;2.47;;;4.90;99.90;;;;;;5036902;28;20200;-81
2024/01/29 08:12:20;;;;;;;2.47;1.80;;;5.20;99.90;;;;;;5037922;28;20203;-81
2024/01/29 08:14:48;;;;;;;5.33;2.20;;;5.20;99.90;;;;;;5042620;28;20211;-81
2024/01/29 08:17:15;;;;;;;6.03;2.10;;;5.30;99.90;;;;;;5038982;28;20231;-80
2024/01/29 08:19:41;;;;;;;3.50;2.00;;;5.40;99.90;;;;;;5036629;28;20207;-80
2024/01/29 08:22:08;;;;;;;3.53;2.20;;;5.40;99.90;;;;;;5037298;28;20684;-79
2024/01/29 08:24:37;;;;;;;3.53;2.17;;;5.60;99.90;;;;;;5036296;28;20604;-81
2024/01/29 08:27:04;;;;;;;4.40;2.27;;;5.60;99.90;;;;;;5035793;28;20223;-81
2024/01/29 08:29:31;;;;;;;3.47;2.47;;;5.60;1.00;;;;;;5038185;28;20361;-79
2024/01/29 08:31:58;;;;;;;4.63;2.20;;;5.70;1.00;;;;;;5040735;28;20646;-79
2024/01/29 08:34:25;;;;;;;4.77;2.40;;;6.10;1.00;;;;;;5037749;28;20203;-82
2024/01/29 08:36:53;;;;;;;2.73;2.23;;;6.30;1.00;;;;;;5038740;28;20272;-79
2024/01/29 08:39:20;;;;;;;3.10;2.10;;;7.10;99.90;;;;;;5038420;28;20207;-79
2024/01/29 08:41:48;;;;;;;3.40;2.30;;;8.00;99.90;;;;;;5037189;28;20218;-79
2024/01/29 08:44:15;;;;;;;4.37;2.47;;;7.80;99.90;;;;;;5036683;28;20675;-79
2024/01/29 08:46:42;;;;;;;2.83;2.10;;;7.40;99.90;;;;;;5036013;28;20254;-80
2024/01/29 08:49:09;;;;;;;3.00;1.87;;;7.10;99.90;;;;;;5036659;28;20290;-82
2024/01/29 08:51:36;;;;;;;5.20;2.20;;;7.20;99.90;;;;;;5035535;28;20212;-80
2024/01/29 08:54:03;;;;;;;3.33;2.40;;;7.10;99.90;;;;;;5039226;28;20214;-81
2024/01/29 08:56:31;;;;;;;2.43;2.17;;;6.90;99.90;;;;;;5039931;28;20223;-82
2024/01/29 08:58:59;;;;;;;3.80;2.23;;;6.70;99.90;;;;;;5040888;28;20262;-81
2024/01/29 09:01:25;;;;;;;4.30;2.10;;;6.70;99.90;;;;;;5036670;28;20607;-80
2024/01/29 09:03:52;;;;;;;2.00;1.90;;;6.80;99.90;;;;;;5038463;28;20206;-81
2024/01/29 09:06:19;;;;;;;5.70;2.50;;;6.90;99.90;;;;;;5040636;28;20231;-79
2024/01/29 09:08:46;;;;;;;2.90;2.40;;;6.80;99.90;;;;;;5038262;28;20204;-83
2024/01/29 09:11:13;;;;;;;4.97;2.07;;;6.70;99.90;;;;;;5036982;28;20195;-78
2024/01/29 09:13:39;;;;;;;2.67;2.13;;;7.10;99.90;;;;;;5037327;28;20195;-81
2024/01/29 09:16:08;;;;;;;3.37;2.10;;;7.70;99.90;;;;;;5038176;28;20223;-80
2024/01/29 09:18:35;;;;;;;3.70;2.40;;;8.00;99.90;;;;;;5038911;28;20666;-79
2024/01/29 09:21:02;;;;;;;2.30;2.10;;;7.90;99.90;;;;;;5036214;28;20580;-81
2024/01/29 09:23:29;;;;;;;3.53;2.50;;;8.00;99.90;;;;;;5035652;28;20298;-80
2024/01/29 09:25:56;;;;;;;2.77;2.17;;;8.50;99.90;;;;;;5039503;28;20261;-81
2024/01/29 09:28:23;;;;;;;3.00;2.10;;;8.60;99.90;;;;;;5036560;28;20631;-80
2024/01/29 09:30:50;;;;;;;3.67;2.17;;;8.60;99.90;;;;;;5039605;28;20693;-81
2024/01/29 09:33:19;;;;;;;4.63;2.40;;;8.70;99.90;;;;;;5038923;28;20199;-81
2024/01/29 09:35:46;;;;;;;3.80;2.30;;;8.90;99.90;;;;;;5043690;28;20336;-81
2024/01/29 09:38:14;;;;;;;2.90;2.30;;;9.00;99.90;;;;;;5040412;28;20199;-81
2024/01/29 09:40:44;;;;;;;4.33;2.30;;;8.70;99.90;;;;;;5037669;28;20196;-80
2024/01/29 09:43:12;;;;;;;3.90;2.33;;;8.30;99.90;;;;;;5040342;28;20206;-79
2024/01/29 09:45:41;;;;;;;2.47;2.27;;;8.20;99.90;;;;;;5037722;28;20223;-80
2024/01/29 09:48:12;;;;;;;2.43;2.23;;;8.20;99.90;;;;;;5036888;28;20313;-82
2024/01/29 09:50:41;;;;;;;4.67;2.43;;;8.30;99.90;;;;;;5037947;28;20206;-82
2024/01/29 09:53:11;;;;;;;4.73;2.40;;;8.40;99.90;;;;;;5038112;28;20211;-82
2024/01/29 09:55:37;;;;;;;3.53;2.40;;;8.60;99.90;;;;;;5035605;28;20219;-79
2024/01/29 09:58:05;;;;;;;2.73;2.17;;;8.60;99.90;;;;;;5035289;28;20202;-80
2024/01/29 10:00:31;;;;;;;2.97;2.40;;;8.50;99.90;;;;;;5041301;28;20286;-81
2024/01/29 10:03:01;;;;;;;4.07;2.67;;;8.70;99.90;;;;;;5039788;28;20261;-82
2024/01/29 10:05:31;;;;;;;4.30;2.77;;;8.60;99.90;;;;;;5040261;28;20203;-80
2024/01/29 10:07:59;;;;;;;4.80;2.57;;;8.90;99.90;;;;;;5042144;28;20250;-80
2024/01/29 10:10:26;;;;;;;3.33;2.37;;;9.10;99.90;;;;;;5037231;28;20632;-80
2024/01/29 10:13:03;;;;;;;3.97;2.60;;;9.30;99.90;;;;;;5044605;28;20569;-80
2024/01/29 10:15:31;;;;;;;2.53;2.20;;;9.40;99.90;;;;;;5044403;28;20203;-81
2024/01/29 10:17:58;;;;;;;3.57;2.40;;;9.50;99.90;;;;;;5043229;28;20203;-80
2024/01/29 10:20:25;;;;;;;3.37;2.30;;;9.70;99.90;;;;;;5043069;28;20578;-80
2024/01/29 10:23:00;;;;;;;3.07;2.30;;;9.80;99.90;;;;;;5041290;28;20669;-80
2024/01/29 10:25:27;;;;;;;3.53;2.63;;;10.20;99.90;;;;;;5044367;28;20595;-80
2024/01/29 10:27:54;;;;;;;4.53;2.47;;;10.30;99.90;;;;;;5041045;28;20220;-80
2024/01/29 10:30:22;;;;;;;3.57;2.50;;;10.60;99.90;;;;;;5044596;28;20208;-81
2024/01/29 10:32:49;;;;;;;2.20;2.00;;;10.60;99.90;;;;;;5046961;28;20685;-81
2024/01/29 10:35:15;;;;;;;6.20;2.50;;;10.80;99.90;;;;;;5045459;28;20267;-81
2024/01/29 10:37:47;;;;;;;3.60;2.70;;;11.10;99.90;;;;;;5047753;28;20585;-82
2024/01/29 10:40:17;;;;;;;2.83;2.17;;;11.10;99.90;;;;;;5044475;28;20203;-82
2024/01/29 10:42:49;;;;;;;2.70;2.30;;;11.40;99.90;;;;;;5045943;28;20200;-81
2024/01/29 10:45:20;;;;;;;4.10;2.37;;;11.60;99.90;;;;;;5043146;28;20678;-81
2024/01/29 10:47:48;;;;;;;4.73;2.43;;;11.40;99.90;;;;;;5041954;28;20224;-80
2024/01/29 10:50:18;;;;;;;3.30;2.43;;;11.40;99.90;;;;;;5042638;28;20213;-80
2024/01/29 10:52:46;;;;;;;6.23;2.80;;;11.30;99.90;;;;;;5040750;28;20578;-80
2024/01/29 10:55:16;;;;;;;4.30;2.67;;;11.60;99.90;;;;;;5038872;28;20207;-80
2024/01/29 10:57:46;;;;;;;3.10;2.70;;;11.40;99.90;;;;;;5040487;28;20211;-80
2024/01/29 11:00:16;;;;;;;3.80;2.60;;;11.60;99.90;;;;;;5040230;28;20195;-81
2024/01/29 11:02:44;;;;;;;2.70;2.10;;;11.70;99.90;;;;;;5043399;28;20230;-81
2024/01/29 11:05:12;;;;;;;3.33;2.20;;;11.50;91.80;;;;;;5038589;28;20210;-80
2024/01/29 11:07:42;;;;;;;3.23;2.30;;;11.30;87.90;;;;;;5042304;28;20420;-81
2024/01/29 11:10:16;;;;;;;2.87;2.30;;;11.50;96.70;;;;;;5043670;28;20205;-80
2024/01/29 11:12:45;;;;;;;3.67;2.67;;;11.60;98.80;;;;;;5042872;28;20199;-80
2024/01/29 11:15:12;;;;;;;4.30;2.40;;;12.10;99.90;;;;;;5041734;28;20581;-81
2024/01/29 11:17:41;;;;;;;4.90;2.90;;;12.00;99.90;;;;;;5041935;28;20199;-81
2024/01/29 11:20:13;;;;;;;7.50;2.87;;;12.10;99.90;;;;;;5041390;28;20212;-81
2024/01/29 11:22:41;;;;;;;4.40;2.63;;;12.00;99.90;;;;;;5042165;28;20203;-81
2024/01/29 11:25:09;;;;;;;4.20;2.57;;;12.00;99.90;;;;;;5040243;28;20213;-81
2024/01/29 11:27:38;;;;;;;2.87;2.50;;;12.00;99.90;;;;;;5039166;28;20223;-81
2024/01/29 11:30:18;;;;;;;3.57;2.60;;;11.90;99.90;;;;;;5044413;28;20645;-82
2024/01/29 11:32:45;;;;;;;4.70;2.50;;;11.90;99.90;;;;;;5043806;28;20242;-81
2024/01/29 11:35:14;;;;;;;4.33;2.43;;;11.90;99.90;;;;;;5048167;28;20506;-81
2024/01/29 11:37:41;;;;;;;2.80;2.50;;;12.20;99.90;;;;;;5048387;28;20231;-82
2024/01/29 11:40:33;;;;;;;5.37;2.43;;;12.20;99.90;;;;;;5048905;28;20234;-80
2024/01/29 11:43:00;;;;;;;3.83;2.63;;;12.10;99.90;;;;;;5045232;28;20210;-81
2024/01/29 11:45:30;;;;;;;4.13;2.40;;;12.20;99.90;;;;;;5044793;28;20242;-80
2024/01/29 11:47:58;;;;;;;4.40;2.60;;;11.90;90.80;;;;;;5045587;28;20231;-81
2024/01/29 11:50:25;;;;;;;2.93;2.40;;;11.80;83.30;;;;;;5044582;28;20196;-81
2024/01/29 11:52:52;;;;;;;4.27;2.60;;;11.90;83.40;;;;;;5039004;28;20207;-81
2024/01/29 11:55:21;;;;;;;3.07;2.60;;;11.70;67.00;;;;;;5041133;28;20205;-81
2024/01/29 11:57:51;;;;;;;4.50;3.07;;;11.80;88.60;;;;;;5038649;28;20210;-80
2024/01/29 12:00:19;;;;;;;2.60;2.40;;;11.90;99.90;;;;;;5039451;28;20239;-81
2024/01/29 12:02:50;;;;;;;3.90;2.60;;;12.10;91.90;;;;;;5040101;28;20199;-81
2024/01/29 12:05:18;;;;;;;5.67;2.83;;;12.10;79.00;;;;;;5038915;28;20243;-81
2024/01/29 12:07:47;;;;;;;7.20;2.77;;;12.00;70.30;;;;;;5039533;28;20215;-81
2024/01/29 12:10:14;;;;;;;4.30;3.07;;;12.20;58.40;;;;;;5038424;28;20594;-81
2024/01/29 12:12:41;;;;;;;3.30;2.50;;;12.30;82.80;;;;;;5041145;28;20199;-81
2024/01/29 12:15:10;;;;;;;4.17;2.80;;;12.40;73.90;;;;;;5038761;28;20219;-80
2024/01/29 12:17:39;;;;;;;3.80;2.80;;;12.80;99.90;;;;;;5040873;28;20612;-81
2024/01/29 12:20:10;;;;;;;3.73;2.37;;;14.10;99.90;;;;;;5039917;28;20195;-81
2024/01/29 12:22:37;;;;;;;3.37;2.50;;;15.50;99.90;;;;;;5039357;28;20211;-81
2024/01/29 12:25:05;;;;;;;5.53;3.10;;;16.00;70.80;;;;;;5038710;28;20204;-81
2024/01/29 12:27:31;;;;;;;3.97;2.73;;;15.00;22.20;;;;;;5042908;28;20291;-81
2024/01/29 12:29:59;;;;;;;6.00;3.10;;;14.80;1.00;;;;;;5041176;28;20198;-81
2024/01/29 12:32:26;;;;;;;5.23;3.30;;;14.80;11.70;;;;;;5048636;28;20234;-80
2024/01/29 12:34:52;;;;;;;4.63;2.80;;;14.40;1.00;;;;;;5041320;28;20666;-81
2024/01/29 12:37:22;;;;;;;3.00;2.63;;;14.20;1.00;;;;;;5047984;28;20215;-81
2024/01/29 12:39:53;;;;;;;4.17;2.83;;;14.30;1.00;;;;;;5042875;28;20544;-81
2024/01/29 12:42:20;;;;;;;4.20;3.00;;;13.80;1.00;;;;;;5047739;28;20215;-81
2024/01/29 12:44:50;;;;;;;4.77;3.10;;;13.70;1.00;;;;;;5038089;28;20204;-82
2024/01/29 12:47:18;;;;;;;5.37;2.93;;;13.40;1.00;;;;;;5047616;28;20294;-81
2024/01/29 12:49:47;;;;;;;4.93;3.10;;;13.10;1.00;;;;;;5043050;28;20218;-80
2024/01/29 12:52:14;;;;;;;5.60;2.90;;;13.30;1.00;;;;;;5036061;28;20203;-81
2024/01/29 12:54:45;;;;;;;3.57;2.70;;;13.10;1.00;;;;;;5041719;28;20634;-82
2024/01/29 12:57:12;;;;;;;3.10;2.73;;;13.10;1.00;;;;;;5044350;28;20755;-81
2024/01/29 12:59:38;;;;;;;5.03;2.93;;;13.50;1.00;;;;;;5039933;28;20279;-82
2024/01/29 13:02:06;;;;;;;3.50;3.00;;;13.60;1.00;;;;;;5042776;28;20267;-81